默认 日期 大小 文件数 浏览量 最新下载 xml
08.18磁力链接相关资源由用户搜索指令自动获取,结果来源于网络,本站不存储任何资料,亦不承担任何责任,请于24小时内删除,搜索到25360个磁力,显示前4000条数据,用时52ms。
    {"sinful.16.08.18.blanche[N1C].mp4": 1851072818, "Hide-Your-IP-using-FiveStarVPN.com.txt": 91, "Torrent-Downloaded-from-ExtraTorrent.cc.txt": 176}
创建时间: 2020-11-11 21:32:24 大小:1.72 GB 文件数量:3 热度:9 最近下载:2025-04-15 08:34:01
    ... , "1 (17).jpg": 1210453, "1 (18).jpg": 1144933, "1 (19).jpg ... , "1 (103).jpg": 1194812, "2020-08-18新流出价值 ...
创建时间: 2020-11-14 20:56:10 大小:513.09 MB 文件数量:116 热度:1326 最近下载:2025-10-15 05:11:01
    {"": {"Big Tits Round Asses - Layla London { Laying Layla London - 08.18.2016 - BangBros } NEW August 18 2016 1080p.mp4": 3200657452}}
创建时间: 2020-11-15 07:51:37 大小:2.98 GB 文件数量:1 热度:17 最近下载:2025-08-19 10:03:02
    {"ohrly.nfo": 7157, "file_id.diz": 237, "RARBG.com.txt": 34, "RARBG.COM_XXX_BANNER.jpg": 517081, "035751449180816a14ef4cb2fdefa250.jpg": 679201, "078e22e984cd5ae613ffb0c5526a4b0e.jpg": 599183, "0b5a20dccc7f5911e6a11d8fab76a70c.jpg": 620504, " ...
创建时间: 2020-11-16 05:25:41 大小:38.24 MB 文件数量:63 热度:4 最近下载:2022-04-13 06:48:09
    ... .org.nfo": 86, "MagicalFeet.10.08.18.Emma.Mae.Groovy.Foot.Rub ... Team.avi": 274490406, "MagicalFeet.10.08.18.Emma.Mae.Groovy.Foot.Rub ...
创建时间: 2020-11-16 10:36:15 大小:264.8 MB 文件数量:12 热度:9 最近下载:2024-10-02 14:48:02
    {"Sample": {"ktr.utm.12.08.18.valorie.hardy.wmv": 62074209}, "RARBG.com.txt": 34, "ktr.utm.12.08.18.valorie.hardy.nfo": 6892, "ktr.utm.12.08.18.valorie.hardy.wmv": 1510508053}
创建时间: 2020-11-17 04:23:41 大小:1.46 GB 文件数量:4 热度:20 最近下载:2025-10-03 06:50:02
    ... - 1984.08.18 - Full Episode.mp4": 4122090819, "night-flight-1984-08-18-full-episode_meta ... .xml": 2115, "Night Flight - 1984.08.18 - Full ... Episode.ia.mp4": 4122090819, "night-flight-1984-08-18-full ...
创建时间: 2020-11-18 07:32:33 大小:7.69 GB 文件数量:10 热度:5 最近下载:2025-02-28 01:40:01
    {"Lady.Sonia.15.08.18.Busty.MILF.Private.Workout.XXX720p": {"Lady.Sonia.15.08.18.Busty.MILF.Private.Workout.XXX720p.mp4": 740386681}}
创建时间: 2020-11-18 17:28:40 大小:706.09 MB 文件数量:1 热度:11 最近下载:2024-10-12 22:14:02
    ... 太子探花】08.18酒店约炮极 ...
创建时间: 2020-11-19 23:55:53 大小:791.12 MB 文件数量:14 热度:271 最近下载:2025-10-12 12:16:03
    {"PervyOnes.15.08.18.Marina.Visconti.Blanche.Bradburry.And.Kitana.Lure.XXX.1080p.MKV-KTR.mkv": 1819967313}
创建时间: 2020-11-22 03:40:34 大小:1.69 GB 文件数量:1 热度:23 最近下载:2025-02-16 15:49:03
    {"info.txt": 972, "ffp.ffp.txt": 232, "d1t01 - intro.flac": 12777831, "d1t02 - piece 1.flac": 435608495, "d1t03 - piece 2.flac": 111518438}
创建时间: 2020-11-22 13:43:03 大小:533.97 MB 文件数量:5 热度:5 最近下载:2021-06-17 16:25:58
    {"RARBG.txt": 30, "RARBG_DO_NOT_MIRROR.exe": 99, "nurses.rounds.720p-oiled.mp4": 1456692773, "nurses.rounds.720p-oiled.nfo": 6608}
创建时间: 2020-11-25 12:30:27 大小:1.36 GB 文件数量:4 热度:14 最近下载:2025-06-24 00:27:01
    ... ": 21478465, "big2048.com@ RKPrime.20.08.18.Ember.Snow.Rockstar.XXX.SD ...
创建时间: 2020-11-25 19:05:44 大小:758.64 MB 文件数量:27 热度:5 最近下载:2025-08-22 23:41:02
    ... .18.08.18.Nurses.Rounds.XXX.XviD-iPT Team.avi": 289582546, "WifeysWorld.18.08.18.Nurses ...
创建时间: 2020-11-25 19:30:02 大小:278.34 MB 文件数量:12 热度:3 最近下载:2022-04-15 06:12:10
    {"(真人直播大秀 uun22.com).mp4": 21562180, "(真人直播大秀 uun22.com)19 猛男探花约炮达人【太子探花】08.18酒店约炮极品身材披肩女神外围 激烈3P轮操女神 这身材我给满分.mp4": 652977383}
创建时间: 2020-11-29 02:50:36 大小:643.29 MB 文件数量:2 热度:205 最近下载:2025-10-17 03:26:01
    {"美女直播大秀(uun22.com ).mp4": 21562180, "美女直播大秀(uun22.com )14 极品美乳京都大四学妹『你的可儿』08.18约粉丝家中全裸啪啪 拽着胳膊后入无套冲刺 翘挺美乳 白浆内射.mp4": 709421721}
创建时间: 2020-11-29 03:40:33 大小:697.12 MB 文件数量:2 热度:339 最近下载:2025-10-10 02:59:02
    {"Provided by PornRips.to.nfo": 47, "PureTaboo.20.08.18.Krissy.Lynn.And.Kamryn.Jade.Father.Figure.XXX.1080p.HEVC.x265.PRT.mp4": 535428355}
创建时间: 2020-11-29 14:02:54 大小:510.62 MB 文件数量:2 热度:10 最近下载:2024-10-17 11:58:01
    {"ohrly.nfo": 7157, "file_id.diz": 238, "RARBG.com.txt": 34, "RARBG.COM_XXX_BANNER.jpg": 517081, "066fcbe79808ed9665dca0ff77b9c100.jpg": 1056531, "06a4ddeb9c3a3092c542a49f02daf26e.jpg": 1249973, "0acd54a56b120cdc6611a4902e81194b.jpg": 1772423, " ...
创建时间: 2020-11-29 16:40:03 大小:63.54 MB 文件数量:59 热度:4 最近下载:2024-08-17 03:34:01
    {"nan0020_0115_01.wmv": 86024058, "nan0020_0115_02.wmv": 108408742, "nan0020_0115_03.wmv": 76455764, "nan0020_0115_04.wmv": 84824016, "SpeedPluss�׾�.html": 1564, "speedpluss.us�׾©ۦ��u�����ɹζ�!!.txt": 258, "speedpluss.us�׾¬��}�����N�z�C��.txt": 184, " ...
创建时间: 2020-11-29 23:19:08 大小:339.24 MB 文件数量:9 热度:4 最近下载:2024-09-28 16:18:02
    {"RARBG.txt": 30, "RARBG_DO_NOT_MIRROR.exe": 99, "gush.putalocura.20.08.18.davinia.mp4": 730373990, "gush.putalocura.20.08.18.davinia.720p.nfo": 9169}
创建时间: 2020-11-30 00:43:28 大小:696.55 MB 文件数量:4 热度:9 最近下载:2025-07-01 22:54:02